createdAt,value
2022-09-17T00:02:07.233Z,14.85
2022-09-17T00:04:29.996Z,14.84
2022-09-17T00:06:52.787Z,14.81
2022-09-17T00:09:15.651Z,14.84
2022-09-17T00:11:40.979Z,14.83
2022-09-17T00:14:05.526Z,14.77
2022-09-17T00:16:40.355Z,14.78
2022-09-17T00:19:05.365Z,14.76
2022-09-17T00:21:28.459Z,14.80
2022-09-17T00:23:55.667Z,14.78
2022-09-17T00:26:18.128Z,14.81
2022-09-17T00:28:41.868Z,14.85
2022-09-17T00:31:09.181Z,14.84
2022-09-17T00:33:31.843Z,14.84
2022-09-17T00:35:59.624Z,14.85
2022-09-17T00:38:22.204Z,14.87
2022-09-17T00:40:44.792Z,14.77
2022-09-17T00:43:12.435Z,14.84
2022-09-17T00:45:35.002Z,14.78
2022-09-17T00:48:00.083Z,14.85
2022-09-17T00:50:48.776Z,14.80
2022-09-17T00:53:15.886Z,14.84
2022-09-17T00:55:42.642Z,14.81
2022-09-17T00:58:08.171Z,14.89
2022-09-17T01:00:31.170Z,14.91
2022-09-17T01:02:54.636Z,14.89
2022-09-17T01:05:17.411Z,14.91
2022-09-17T01:07:54.874Z,14.84
2022-09-17T01:10:38.005Z,14.77
2022-09-17T01:13:16.920Z,14.81
2022-09-17T01:15:45.487Z,14.81
2022-09-17T01:18:42.277Z,14.83
2022-09-17T01:21:13.792Z,14.78
2022-09-17T01:23:45.349Z,14.80
2022-09-17T01:26:36.571Z,14.73
2022-09-17T01:29:02.177Z,14.73
2022-09-17T01:31:39.133Z,14.70
2022-09-17T01:34:38.735Z,14.64
2022-09-17T01:37:30.629Z,14.66
2022-09-17T01:40:03.499Z,14.67
2022-09-17T01:42:36.272Z,14.66
2022-09-17T01:45:07.129Z,14.60
2022-09-17T01:47:36.513Z,14.51
2022-09-17T01:50:05.288Z,14.43
2022-09-17T01:52:31.584Z,14.43
2022-09-17T01:54:58.529Z,14.41
2022-09-17T01:57:38.233Z,14.39
2022-09-17T02:00:14.034Z,14.39
2022-09-17T02:03:02.452Z,14.44
2022-09-17T02:05:29.540Z,14.41
2022-09-17T02:07:59.751Z,14.40
2022-09-17T02:10:30.242Z,14.34
2022-09-17T02:12:58.089Z,14.29
2022-09-17T02:15:25.694Z,14.22
2022-09-17T02:17:55.903Z,14.28
2022-09-17T02:20:23.727Z,14.36
2022-09-17T02:22:56.759Z,14.26
2022-09-17T02:25:34.475Z,14.26
2022-09-17T02:28:11.649Z,14.32
2022-09-17T02:30:34.509Z,14.30
2022-09-17T02:32:57.133Z,14.28
2022-09-17T02:35:20.108Z,14.28
2022-09-17T02:37:44.703Z,14.18
2022-09-17T02:40:08.405Z,14.23
2022-09-17T02:42:58.890Z,14.18
2022-09-17T02:45:40.867Z,14.16
2022-09-17T02:48:32.865Z,14.19
2022-09-17T02:51:21.530Z,14.18
2022-09-17T02:54:03.268Z,14.18
2022-09-17T02:56:57.172Z,14.22
2022-09-17T02:59:33.063Z,14.11
2022-09-17T03:02:09.034Z,14.13
2022-09-17T03:04:32.242Z,14.11
2022-09-17T03:06:55.600Z,14.08
2022-09-17T03:09:18.370Z,14.12
2022-09-17T03:11:41.903Z,14.06
2022-09-17T03:14:04.608Z,14.06
2022-09-17T03:16:27.083Z,14.02
2022-09-17T03:18:49.739Z,13.97
2022-09-17T03:21:12.806Z,14.01
2022-09-17T03:23:35.454Z,13.98
2022-09-17T03:25:59.299Z,13.94
2022-09-17T03:28:22.265Z,13.92
2022-09-17T03:30:46.057Z,13.89
2022-09-17T03:33:08.643Z,13.91
2022-09-17T03:35:31.148Z,13.91
2022-09-17T03:37:53.855Z,13.94
2022-09-17T03:40:17.218Z,13.86
2022-09-17T03:42:39.873Z,13.86
2022-09-17T03:45:02.312Z,13.91
2022-09-17T03:47:25.383Z,13.94
2022-09-17T03:49:48.040Z,13.92
2022-09-17T03:52:10.524Z,13.89
2022-09-17T03:54:32.969Z,13.88
2022-09-17T03:56:55.545Z,13.85
2022-09-17T03:59:18.069Z,13.85
2022-09-17T04:01:40.692Z,13.84
2022-09-17T04:04:04.099Z,13.81
2022-09-17T04:06:26.715Z,13.82
2022-09-17T04:08:49.443Z,13.84
2022-09-17T04:11:12.245Z,13.82
2022-09-17T04:13:34.920Z,13.77
2022-09-17T04:15:57.513Z,13.78
2022-09-17T04:18:20.078Z,13.84
2022-09-17T04:20:43.439Z,13.77
2022-09-17T04:23:10.387Z,13.67
2022-09-17T04:25:34.127Z,13.75
2022-09-17T04:27:56.800Z,13.77
2022-09-17T04:30:19.643Z,13.75
2022-09-17T04:32:44.135Z,13.78
2022-09-17T04:35:07.231Z,13.81
2022-09-17T04:37:29.845Z,13.71
2022-09-17T04:39:52.791Z,13.75
2022-09-17T04:42:15.785Z,13.70
2022-09-17T04:44:38.320Z,13.71
2022-09-17T04:47:00.839Z,13.71
2022-09-17T04:49:23.836Z,13.78
2022-09-17T04:51:46.403Z,13.82
2022-09-17T04:54:09.064Z,13.79
2022-09-17T04:56:31.661Z,13.75
2022-09-17T04:58:54.257Z,13.54
2022-09-17T05:01:18.895Z,13.57
2022-09-17T05:03:41.427Z,13.58
2022-09-17T05:06:04.180Z,13.64
2022-09-17T05:08:26.885Z,13.73
2022-09-17T05:10:51.465Z,13.68
2022-09-17T05:13:13.951Z,13.71
2022-09-17T05:15:36.538Z,13.71
2022-09-17T05:17:59.053Z,13.71
2022-09-17T05:20:22.358Z,13.73
2022-09-17T05:22:46.912Z,13.82
2022-09-17T05:25:09.968Z,13.82
2022-09-17T05:27:32.941Z,13.95
2022-09-17T05:29:55.947Z,13.89
2022-09-17T05:32:18.576Z,14.02
2022-09-17T05:34:41.515Z,13.98
2022-09-17T05:37:04.223Z,14.00
2022-09-17T05:39:26.667Z,13.98
2022-09-17T05:41:49.104Z,13.94
2022-09-17T05:44:16.025Z,14.05
2022-09-17T05:46:40.406Z,14.09
2022-09-17T05:49:03.528Z,14.12
2022-09-17T05:51:26.096Z,14.06
2022-09-17T05:53:56.098Z,14.09
2022-09-17T05:56:19.480Z,14.05
2022-09-17T05:58:42.039Z,13.98
2022-09-17T06:01:04.682Z,14.02
2022-09-17T06:03:27.392Z,14.18
2022-09-17T06:05:55.670Z,14.26
2022-09-17T06:08:18.189Z,14.30
2022-09-17T06:10:41.489Z,14.37
2022-09-17T06:13:04.337Z,14.43
2022-09-17T06:15:28.196Z,14.44
2022-09-17T06:17:50.744Z,14.28
2022-09-17T06:20:13.383Z,14.29
2022-09-17T06:22:35.880Z,14.34
2022-09-17T06:24:59.862Z,14.46
2022-09-17T06:27:22.437Z,14.57
2022-09-17T06:29:51.790Z,14.63
2022-09-17T06:32:16.990Z,14.40
2022-09-17T06:34:39.729Z,14.36
2022-09-17T06:37:02.191Z,14.34
2022-09-17T06:39:24.978Z,14.29
2022-09-17T06:41:47.460Z,14.41
2022-09-17T06:44:11.378Z,14.40
2022-09-17T06:46:33.911Z,14.34
2022-09-17T06:48:56.626Z,14.19
2022-09-17T06:51:19.081Z,14.19
2022-09-17T06:53:41.712Z,14.11
2022-09-17T06:56:06.727Z,14.20
2022-09-17T06:58:30.375Z,14.19
2022-09-17T07:00:52.976Z,14.20
2022-09-17T07:03:17.232Z,14.12
2022-09-17T07:05:45.282Z,14.09
2022-09-17T07:08:07.757Z,14.12
2022-09-17T07:10:31.484Z,14.05
2022-09-17T07:12:54.729Z,14.09
2022-09-17T07:15:17.288Z,14.04
2022-09-17T07:17:40.615Z,14.09
2022-09-17T07:20:04.457Z,14.20
2022-09-17T07:22:27.164Z,14.25
2022-09-17T07:24:49.691Z,14.28
2022-09-17T07:27:12.510Z,14.50
2022-09-17T07:29:35.289Z,14.63
2022-09-17T07:31:59.582Z,14.68
2022-09-17T07:34:22.431Z,14.80
2022-09-17T07:36:45.244Z,14.89
2022-09-17T07:39:07.842Z,15.04
2022-09-17T07:41:30.553Z,15.08
2022-09-17T07:43:57.207Z,15.08
2022-09-17T07:46:20.926Z,15.28
2022-09-17T07:48:43.758Z,15.29
2022-09-17T07:51:06.794Z,15.33
2022-09-17T07:53:29.429Z,15.39
2022-09-17T07:55:57.051Z,15.42
2022-09-17T07:58:20.896Z,15.46
2022-09-17T08:00:43.893Z,15.14
2022-09-17T08:03:06.748Z,15.32
2022-09-17T08:05:29.419Z,15.29
2022-09-17T08:07:52.991Z,15.25
2022-09-17T08:10:22.619Z,15.22
2022-09-17T08:12:45.103Z,15.29
2022-09-17T08:15:08.049Z,15.25
2022-09-17T08:17:30.588Z,15.39
2022-09-17T08:19:54.500Z,15.45
2022-09-17T08:22:17.241Z,15.53
2022-09-17T08:24:39.888Z,15.56
2022-09-17T08:27:02.415Z,15.76
2022-09-17T08:29:25.316Z,15.81
2022-09-17T08:31:48.293Z,15.66
2022-09-17T08:34:11.226Z,15.79
2022-09-17T08:36:33.949Z,15.77
2022-09-17T08:38:58.201Z,15.86
2022-09-17T08:41:35.792Z,15.87
2022-09-17T08:43:58.359Z,15.90
2022-09-17T08:46:21.447Z,15.90
2022-09-17T08:49:15.377Z,15.86
2022-09-17T08:51:56.048Z,16.10
2022-09-17T08:54:34.109Z,16.11
2022-09-17T08:57:28.732Z,16.12
2022-09-17T09:00:03.428Z,15.98
2022-09-17T09:02:35.080Z,15.91
2022-09-17T09:05:02.793Z,15.87
2022-09-17T09:07:31.319Z,15.86
2022-09-17T09:10:22.447Z,15.90
2022-09-17T09:12:45.884Z,16.01
2022-09-17T09:15:31.615Z,16.01
2022-09-17T09:17:54.817Z,16.08
2022-09-17T09:20:32.324Z,16.07
2022-09-17T09:22:55.079Z,16.01
2022-09-17T09:25:28.589Z,16.10
2022-09-17T09:28:08.345Z,16.17
2022-09-17T09:30:47.819Z,16.22
2022-09-17T09:33:17.577Z,16.26
2022-09-17T09:35:43.108Z,16.33
2022-09-17T09:38:09.375Z,16.32
2022-09-17T09:40:42.357Z,16.32
2022-09-17T09:43:32.752Z,16.19
2022-09-17T09:46:45.596Z,16.28
2022-09-17T09:49:17.371Z,16.22
2022-09-17T09:51:52.821Z,16.28
2022-09-17T09:54:24.074Z,16.25
2022-09-17T09:56:55.758Z,16.38
2022-09-17T09:59:19.649Z,16.36
2022-09-17T10:01:45.104Z,16.12
2022-09-17T10:04:23.011Z,16.08
2022-09-17T10:06:47.119Z,16.10
2022-09-17T10:09:12.299Z,15.97
2022-09-17T10:11:35.030Z,15.98
2022-09-17T10:14:24.331Z,16.04
2022-09-17T10:16:46.853Z,16.04
2022-09-17T10:19:13.125Z,15.94
2022-09-17T10:21:41.434Z,16.01
2022-09-17T10:24:12.324Z,16.04
2022-09-17T10:26:37.058Z,16.18
2022-09-17T10:29:06.129Z,16.26
2022-09-17T10:31:47.456Z,16.19
2022-09-17T10:34:20.435Z,16.14
2022-09-17T10:36:45.368Z,16.22
2022-09-17T10:39:44.288Z,16.11
2022-09-17T10:42:18.477Z,16.15
2022-09-17T10:45:25.572Z,16.02
2022-09-17T10:47:48.167Z,15.96
2022-09-17T10:50:21.327Z,15.93
2022-09-17T10:52:56.677Z,15.89
2022-09-17T10:55:41.393Z,16.12
2022-09-17T10:58:09.626Z,16.18
2022-09-17T11:00:44.137Z,16.12
2022-09-17T11:03:45.341Z,15.86
2022-09-17T11:06:33.475Z,15.84
2022-09-17T11:09:33.520Z,15.69
2022-09-17T11:12:20.211Z,15.73
2022-09-17T11:14:43.034Z,15.66
2022-09-17T11:17:42.315Z,15.62
2022-09-17T11:20:22.560Z,15.50
2022-09-17T11:23:07.026Z,15.49
2022-09-17T11:25:56.148Z,15.53
2022-09-17T11:28:22.295Z,15.57
2022-09-17T11:30:44.929Z,15.59
2022-09-17T11:33:36.635Z,15.54
2022-09-17T11:36:11.964Z,15.59
2022-09-17T11:38:50.113Z,15.53
2022-09-17T11:41:23.540Z,15.60
2022-09-17T11:43:59.365Z,15.47
2022-09-17T11:46:27.472Z,15.52
2022-09-17T11:49:18.105Z,15.60
2022-09-17T11:51:48.528Z,15.69
2022-09-17T11:54:26.182Z,15.77
2022-09-17T11:56:52.691Z,15.74
2022-09-17T11:59:17.952Z,15.70
2022-09-17T12:01:51.485Z,15.69
2022-09-17T12:04:38.207Z,15.69
2022-09-17T12:07:19.408Z,15.64
2022-09-17T12:09:48.763Z,15.59
2022-09-17T12:12:47.676Z,15.53
2022-09-17T12:15:18.440Z,15.43
2022-09-17T12:18:31.054Z,15.39
2022-09-17T12:20:57.710Z,15.29
2022-09-17T12:23:52.160Z,15.29
2022-09-17T12:26:44.775Z,15.42
2022-09-17T12:29:45.649Z,15.40
2022-09-17T12:32:36.040Z,15.66
2022-09-17T12:35:04.321Z,15.67
2022-09-17T12:37:45.679Z,15.86
2022-09-17T12:40:20.166Z,15.83
2022-09-17T12:43:01.361Z,15.86
2022-09-17T12:45:33.214Z,15.86
2022-09-17T12:48:23.277Z,15.91
2022-09-17T12:51:01.039Z,15.89
2022-09-17T12:53:30.581Z,15.90
2022-09-17T12:56:17.721Z,15.86
2022-09-17T12:58:59.449Z,15.66
2022-09-17T13:01:28.760Z,15.73
2022-09-17T13:03:58.555Z,15.57
2022-09-17T13:06:35.187Z,15.56
2022-09-17T13:09:12.477Z,15.49
2022-09-17T13:12:08.887Z,15.36
2022-09-17T13:14:49.673Z,15.31
2022-09-17T13:17:32.386Z,15.28
2022-09-17T13:20:11.722Z,15.26
2022-09-17T13:22:48.045Z,15.08
2022-09-17T13:25:14.383Z,15.15
2022-09-17T13:27:38.338Z,15.18
2022-09-17T13:30:01.965Z,15.06
2022-09-17T13:32:33.761Z,15.12
2022-09-17T13:34:56.499Z,15.01
2022-09-17T13:37:20.332Z,15.01
2022-09-17T13:39:48.040Z,14.91
2022-09-17T13:42:39.811Z,14.91
2022-09-17T13:45:09.958Z,14.95
2022-09-17T13:47:39.054Z,14.94
2022-09-17T13:50:04.664Z,14.92
2022-09-17T13:52:41.348Z,14.88
2022-09-17T13:55:05.733Z,14.85
2022-09-17T13:57:31.589Z,14.91
2022-09-17T13:59:57.508Z,14.83
2022-09-17T14:02:30.866Z,14.81
2022-09-17T14:05:31.296Z,14.80
2022-09-17T14:08:12.864Z,14.83
2022-09-17T14:10:41.619Z,14.68
2022-09-17T14:13:26.208Z,14.61
2022-09-17T14:15:48.742Z,14.61
2022-09-17T14:18:42.821Z,14.51
2022-09-17T14:21:12.515Z,14.51
2022-09-17T14:23:43.593Z,14.47
2022-09-17T14:26:12.200Z,14.32
2022-09-17T14:28:50.310Z,14.28
2022-09-17T14:31:20.466Z,14.22
2022-09-17T14:33:45.015Z,14.20
2022-09-17T14:36:15.768Z,14.16
2022-09-17T14:38:44.924Z,14.11
2022-09-17T14:41:17.856Z,14.06
2022-09-17T14:43:58.473Z,14.09
2022-09-17T14:46:47.629Z,14.09
2022-09-17T14:49:22.900Z,14.06
2022-09-17T14:51:45.912Z,14.05
2022-09-17T14:54:15.465Z,14.08
2022-09-17T14:57:05.441Z,14.15
2022-09-17T14:59:52.976Z,14.11
2022-09-17T15:02:41.867Z,14.12
2022-09-17T15:05:29.710Z,14.15
2022-09-17T15:07:52.402Z,14.18
2022-09-17T15:10:21.381Z,14.13
2022-09-17T15:12:45.667Z,14.08
2022-09-17T15:15:17.896Z,14.18
2022-09-17T15:17:42.732Z,14.18
2022-09-17T15:20:08.574Z,14.22
2022-09-17T15:22:37.864Z,14.28
2022-09-17T15:25:10.789Z,14.20
2022-09-17T15:27:40.535Z,14.26
2022-09-17T15:30:16.234Z,14.16
2022-09-17T15:32:44.576Z,14.09
2022-09-17T15:35:19.429Z,14.06
2022-09-17T15:38:11.517Z,14.09
2022-09-17T15:40:33.878Z,13.94
2022-09-17T15:43:24.317Z,13.98
2022-09-17T15:45:47.115Z,13.88
2022-09-17T15:48:27.776Z,13.79
2022-09-17T15:50:56.294Z,13.78
2022-09-17T15:53:30.627Z,13.81
2022-09-17T15:56:06.834Z,13.79
2022-09-17T15:58:36.924Z,13.78
2022-09-17T16:01:11.319Z,13.78
2022-09-17T16:03:39.615Z,13.78
2022-09-17T16:06:04.739Z,13.75
2022-09-17T16:08:34.601Z,13.81
2022-09-17T16:10:57.334Z,13.78
2022-09-17T16:13:19.926Z,13.81
2022-09-17T16:15:42.803Z,13.73
2022-09-17T16:18:05.595Z,13.75
2022-09-17T16:20:28.490Z,13.81
2022-09-17T16:22:53.077Z,13.88
2022-09-17T16:25:22.146Z,13.86
2022-09-17T16:27:50.488Z,13.74
2022-09-17T16:30:18.698Z,13.78
2022-09-17T16:32:41.258Z,13.71
2022-09-17T16:35:05.106Z,13.74
2022-09-17T16:37:27.735Z,13.74
2022-09-17T16:39:51.789Z,13.68
2022-09-17T16:42:14.732Z,13.68
2022-09-17T16:44:37.362Z,13.58
2022-09-17T16:47:00.129Z,13.60
2022-09-17T16:49:24.076Z,13.60
2022-09-17T16:51:46.678Z,13.60
2022-09-17T16:54:09.316Z,13.57
2022-09-17T16:56:31.931Z,13.68
2022-09-17T16:58:55.949Z,13.67
2022-09-17T17:01:18.626Z,13.63
2022-09-17T17:03:42.104Z,13.71
2022-09-17T17:06:04.955Z,13.75
2022-09-17T17:08:27.717Z,13.65
2022-09-17T17:10:50.518Z,13.58
2022-09-17T17:13:13.129Z,13.48
2022-09-17T17:15:35.720Z,13.43
2022-09-17T17:17:58.375Z,13.40
2022-09-17T17:20:21.342Z,13.37
2022-09-17T17:22:44.416Z,13.43
2022-09-17T17:25:07.911Z,13.33
2022-09-17T17:27:30.670Z,13.36
2022-09-17T17:29:57.510Z,13.27
2022-09-17T17:32:20.000Z,13.40
2022-09-17T17:34:42.641Z,13.48
2022-09-17T17:37:05.426Z,13.51
2022-09-17T17:39:29.134Z,13.46
2022-09-17T17:41:54.270Z,13.43
2022-09-17T17:44:16.972Z,13.37
2022-09-17T17:46:40.388Z,13.30
2022-09-17T17:49:03.382Z,13.27
2022-09-17T17:51:27.295Z,13.32
2022-09-17T17:53:51.239Z,13.37
2022-09-17T17:56:14.032Z,13.33
2022-09-17T17:58:37.072Z,13.36
2022-09-17T18:01:00.609Z,13.37
2022-09-17T18:03:25.189Z,13.27
2022-09-17T18:05:47.767Z,13.34
2022-09-17T18:08:10.383Z,13.26
2022-09-17T18:10:33.158Z,13.22
2022-09-17T18:12:55.778Z,13.26
2022-09-17T18:15:18.272Z,13.22
2022-09-17T18:17:40.901Z,13.20
2022-09-17T18:20:05.343Z,13.19
2022-09-17T18:22:28.057Z,13.12
2022-09-17T18:24:50.640Z,13.15
2022-09-17T18:27:13.381Z,13.07
2022-09-17T18:29:36.599Z,13.02
2022-09-17T18:31:59.233Z,13.03
2022-09-17T18:34:21.739Z,13.07
2022-09-17T18:36:50.795Z,13.00
2022-09-17T18:41:57.636Z,13.06
2022-09-17T18:44:21.967Z,13.07
2022-09-17T18:46:47.629Z,13.06
2022-09-17T18:49:10.726Z,13.06
2022-09-17T18:51:34.092Z,13.09
2022-09-17T18:53:58.711Z,13.02
2022-09-17T18:56:23.988Z,13.02
2022-09-17T18:58:48.643Z,12.93
2022-09-17T19:01:11.365Z,12.98
2022-09-17T19:03:34.822Z,12.88
2022-09-17T19:06:00.296Z,12.92
2022-09-17T19:08:26.587Z,12.91
2022-09-17T19:10:52.736Z,12.92
2022-09-17T19:13:15.245Z,12.95
2022-09-17T19:15:37.957Z,12.99
2022-09-17T19:18:00.507Z,12.98
2022-09-17T19:20:23.899Z,12.98
2022-09-17T19:22:49.084Z,12.96
2022-09-17T19:25:11.819Z,13.03
2022-09-17T19:27:34.525Z,12.99
2022-09-17T19:29:57.874Z,13.05
2022-09-17T19:32:20.840Z,13.06
2022-09-17T19:34:43.333Z,13.10
2022-09-17T19:37:05.960Z,13.07
2022-09-17T19:39:28.692Z,13.13
2022-09-17T19:41:51.338Z,13.03
2022-09-17T19:44:13.886Z,13.02
2022-09-17T19:46:36.493Z,12.98
2022-09-17T19:49:00.507Z,13.03
2022-09-17T19:51:25.174Z,13.05
2022-09-17T19:53:48.090Z,12.96
2022-09-17T19:56:13.321Z,12.99
2022-09-17T19:58:35.756Z,12.92
2022-09-17T20:00:59.557Z,12.89
2022-09-17T20:03:22.534Z,12.93
2022-09-17T20:05:45.021Z,12.88
2022-09-17T20:08:07.673Z,12.77
2022-09-17T20:10:30.915Z,12.79
2022-09-17T20:12:53.637Z,12.81
2022-09-17T20:15:16.546Z,12.85
2022-09-17T20:17:39.243Z,12.87
2022-09-17T20:20:03.231Z,12.84
2022-09-17T20:22:27.414Z,12.82
2022-09-17T20:24:51.121Z,12.88
2022-09-17T20:27:13.747Z,12.84
2022-09-17T20:29:38.767Z,12.81
2022-09-17T20:32:01.491Z,12.77
2022-09-17T20:34:23.965Z,12.75
2022-09-17T20:36:46.477Z,12.75
2022-09-17T20:39:14.231Z,12.75
2022-09-17T20:42:27.396Z,12.60
2022-09-17T20:44:49.956Z,12.61
2022-09-17T20:47:12.502Z,12.58
2022-09-17T20:49:37.942Z,12.57
2022-09-17T20:52:00.446Z,12.51
2022-09-17T20:54:23.087Z,12.44
2022-09-17T20:56:46.701Z,12.38
2022-09-17T20:59:18.553Z,12.38
2022-09-17T21:01:44.813Z,12.33
2022-09-17T21:04:08.625Z,12.41
2022-09-17T21:06:33.752Z,12.40
2022-09-17T21:08:57.473Z,12.41
2022-09-17T21:11:22.267Z,12.37
2022-09-17T21:13:44.992Z,12.29
2022-09-17T21:16:08.620Z,12.36
2022-09-17T21:18:35.156Z,12.36
2022-09-17T21:21:06.659Z,12.36
2022-09-17T21:23:30.827Z,12.34
2022-09-17T21:26:00.849Z,12.37
2022-09-17T21:28:23.510Z,12.38
2022-09-17T21:30:49.221Z,12.37
2022-09-17T21:33:11.915Z,12.36
2022-09-17T21:35:34.479Z,12.31
2022-09-17T21:37:57.018Z,12.29
2022-09-17T21:40:19.601Z,12.34
2022-09-17T21:42:42.166Z,12.36
2022-09-17T21:45:06.288Z,12.33
2022-09-17T21:47:28.917Z,12.34
2022-09-17T21:49:54.260Z,12.29
2022-09-17T21:52:16.835Z,12.29
2022-09-17T21:54:39.561Z,12.34
2022-09-17T21:57:02.161Z,12.26
2022-09-17T21:59:25.232Z,12.17
2022-09-17T22:01:49.971Z,12.16
2022-09-17T22:04:17.639Z,12.13
2022-09-17T22:06:41.305Z,12.09
2022-09-17T22:09:05.929Z,12.04
2022-09-17T22:11:33.640Z,12.03
2022-09-17T22:13:58.820Z,11.96
2022-09-17T22:16:23.655Z,11.94
2022-09-17T22:18:50.883Z,11.92
2022-09-17T22:21:16.220Z,11.94
2022-09-17T22:23:38.694Z,11.83
2022-09-17T22:26:03.195Z,11.76
2022-09-17T22:28:25.724Z,11.78
2022-09-17T22:30:48.222Z,11.74
2022-09-17T22:33:10.926Z,11.74
2022-09-17T22:35:33.439Z,11.72
2022-09-17T22:37:56.110Z,11.74
2022-09-17T22:40:18.793Z,11.65
2022-09-17T22:42:41.307Z,11.62
2022-09-17T22:45:04.421Z,11.61
2022-09-17T22:47:27.091Z,11.58
2022-09-17T22:49:49.872Z,11.55
2022-09-17T22:52:12.592Z,11.59
2022-09-17T22:54:35.165Z,11.64
2022-09-17T22:56:58.003Z,11.61
2022-09-17T22:59:21.734Z,11.65
2022-09-17T23:01:44.419Z,11.72
2022-09-17T23:04:07.173Z,11.78
2022-09-17T23:06:32.201Z,11.82
2022-09-17T23:08:55.567Z,11.78
2022-09-17T23:11:21.414Z,11.74
2022-09-17T23:13:44.005Z,11.65
2022-09-17T23:16:08.806Z,11.61
2022-09-17T23:18:31.828Z,11.61
2022-09-17T23:21:07.113Z,11.64
2022-09-17T23:23:29.753Z,11.64
2022-09-17T23:25:52.300Z,11.64
2022-09-17T23:28:14.887Z,11.62
2022-09-17T23:30:37.376Z,11.61
2022-09-17T23:32:59.903Z,11.61
2022-09-17T23:35:24.126Z,11.57
2022-09-17T23:37:47.818Z,11.58
2022-09-17T23:40:10.715Z,11.64
2022-09-17T23:42:36.668Z,11.64
2022-09-17T23:44:59.145Z,11.66
2022-09-17T23:47:21.887Z,11.68
2022-09-17T23:49:45.574Z,11.58
2022-09-17T23:52:08.099Z,11.59
2022-09-17T23:54:30.525Z,11.54
2022-09-17T23:56:53.032Z,11.57
2022-09-17T23:59:15.792Z,11.58
